Terminal Aerodrome Forecast
Issued by NWS Central Illinois

Home | Current Version | Previous Version | Text Only | Print | Product List | Glossary On
Versions: 1 2 3 4 5 6 7 8 9 10 11 12 13 14 15 16 17 18 19
720
FTUS43 KILX 171120
TAFSPI
TAF
KSPI 171120Z 1712/1812 20007KT P6SM FEW250
     FM171500 21013G19KT P6SM FEW250
     FM180000 17006KT P6SM SKC=

USA.gov is the U.S. government's official web portal to all federal, state and local government web resources and services.